sensor_id;sensor_type;location;lat;lon;timestamp;temperature;humidity
12166;DHT22;6146;48.128;11.476;2023-10-08T00:01:19;17.30;58.90
12166;DHT22;6146;48.128;11.476;2023-10-08T00:03:48;17.30;59.00
12166;DHT22;6146;48.128;11.476;2023-10-08T00:06:15;17.40;58.70
12166;DHT22;6146;48.128;11.476;2023-10-08T00:08:41;17.50;59.00
12166;DHT22;6146;48.128;11.476;2023-10-08T00:11:06;17.50;59.00
12166;DHT22;6146;48.128;11.476;2023-10-08T00:13:33;17.50;58.80
12166;DHT22;6146;48.128;11.476;2023-10-08T00:16:05;17.60;58.50
12166;DHT22;6146;48.128;11.476;2023-10-08T00:18:34;17.70;59.10
12166;DHT22;6146;48.128;11.476;2023-10-08T00:21:00;17.70;58.60
12166;DHT22;6146;48.128;11.476;2023-10-08T00:23:38;17.70;58.70
12166;DHT22;6146;48.128;11.476;2023-10-08T00:26:08;17.80;58.60
12166;DHT22;6146;48.128;11.476;2023-10-08T00:28:34;17.80;58.80
12166;DHT22;6146;48.128;11.476;2023-10-08T00:31:01;17.80;58.30
12166;DHT22;6146;48.128;11.476;2023-10-08T00:33:37;17.90;58.00
12166;DHT22;6146;48.128;11.476;2023-10-08T00:36:03;17.90;58.00
12166;DHT22;6146;48.128;11.476;2023-10-08T00:38:43;18.00;58.00
12166;DHT22;6146;48.128;11.476;2023-10-08T00:41:16;18.00;57.90
12166;DHT22;6146;48.128;11.476;2023-10-08T00:43:42;18.00;57.70
12166;DHT22;6146;48.128;11.476;2023-10-08T00:46:10;18.10;57.70
12166;DHT22;6146;48.128;11.476;2023-10-08T00:49:03;18.20;57.60
12166;DHT22;6146;48.128;11.476;2023-10-08T00:51:47;18.30;57.40
12166;DHT22;6146;48.128;11.476;2023-10-08T00:54:13;18.40;57.00
12166;DHT22;6146;48.128;11.476;2023-10-08T00:56:46;18.40;56.80
12166;DHT22;6146;48.128;11.476;2023-10-08T00:59:22;18.50;57.10
12166;DHT22;6146;48.128;11.476;2023-10-08T01:01:49;18.40;57.00
12166;DHT22;6146;48.128;11.476;2023-10-08T01:04:29;18.50;56.80
12166;DHT22;6146;48.128;11.476;2023-10-08T01:07:01;18.50;56.70
12166;DHT22;6146;48.128;11.476;2023-10-08T01:09:35;18.50;56.30
12166;DHT22;6146;48.128;11.476;2023-10-08T01:12:13;18.50;56.70
12166;DHT22;6146;48.128;11.476;2023-10-08T01:14:46;18.50;55.70
12166;DHT22;6146;48.128;11.476;2023-10-08T01:17:13;18.60;55.50
12166;DHT22;6146;48.128;11.476;2023-10-08T01:19:41;18.70;55.50
12166;DHT22;6146;48.128;11.476;2023-10-08T01:22:08;18.60;55.40
12166;DHT22;6146;48.128;11.476;2023-10-08T01:24:44;18.60;55.10
12166;DHT22;6146;48.128;11.476;2023-10-08T01:27:17;18.60;54.80
12166;DHT22;6146;48.128;11.476;2023-10-08T01:29:53;18.60;54.70
12166;DHT22;6146;48.128;11.476;2023-10-08T01:32:22;18.60;54.30
12166;DHT22;6146;48.128;11.476;2023-10-08T01:34:48;18.60;54.50
12166;DHT22;6146;48.128;11.476;2023-10-08T01:37:15;18.60;54.10
12166;DHT22;6146;48.128;11.476;2023-10-08T01:39:44;18.60;54.00
12166;DHT22;6146;48.128;11.476;2023-10-08T01:42:11;18.50;53.70
12166;DHT22;6146;48.128;11.476;2023-10-08T01:44:45;18.70;54.00
12166;DHT22;6146;48.128;11.476;2023-10-08T01:47:14;18.60;53.90
12166;DHT22;6146;48.128;11.476;2023-10-08T01:49:42;18.70;54.30
12166;DHT22;6146;48.128;11.476;2023-10-08T01:52:10;18.80;54.20
12166;DHT22;6146;48.128;11.476;2023-10-08T01:54:43;18.70;54.30
12166;DHT22;6146;48.128;11.476;2023-10-08T01:57:09;18.70;54.50
12166;DHT22;6146;48.128;11.476;2023-10-08T01:59:35;18.60;54.20
12166;DHT22;6146;48.128;11.476;2023-10-08T02:02:03;18.70;54.50
12166;DHT22;6146;48.128;11.476;2023-10-08T02:04:33;18.70;54.70
12166;DHT22;6146;48.128;11.476;2023-10-08T02:07:03;18.70;54.70
12166;DHT22;6146;48.128;11.476;2023-10-08T02:09:32;18.70;54.90
12166;DHT22;6146;48.128;11.476;2023-10-08T02:11:58;18.70;55.00
12166;DHT22;6146;48.128;11.476;2023-10-08T02:14:24;18.70;55.00
12166;DHT22;6146;48.128;11.476;2023-10-08T02:16:50;18.60;54.80
12166;DHT22;6146;48.128;11.476;2023-10-08T02:19:22;18.70;55.10
12166;DHT22;6146;48.128;11.476;2023-10-08T02:21:53;18.70;54.90
12166;DHT22;6146;48.128;11.476;2023-10-08T02:24:20;18.80;55.30
12166;DHT22;6146;48.128;11.476;2023-10-08T02:26:47;18.80;55.10
12166;DHT22;6146;48.128;11.476;2023-10-08T02:29:13;18.70;55.40
12166;DHT22;6146;48.128;11.476;2023-10-08T02:31:39;18.70;55.40
12166;DHT22;6146;48.128;11.476;2023-10-08T02:34:08;18.70;55.30
12166;DHT22;6146;48.128;11.476;2023-10-08T02:36:35;18.70;55.30
12166;DHT22;6146;48.128;11.476;2023-10-08T02:39:06;18.70;55.20
12166;DHT22;6146;48.128;11.476;2023-10-08T02:41:42;18.70;55.40
12166;DHT22;6146;48.128;11.476;2023-10-08T02:44:08;18.80;55.40
12166;DHT22;6146;48.128;11.476;2023-10-08T02:46:40;18.80;55.30
12166;DHT22;6146;48.128;11.476;2023-10-08T02:49:07;18.80;55.20
12166;DHT22;6146;48.128;11.476;2023-10-08T02:51:36;18.80;55.60
12166;DHT22;6146;48.128;11.476;2023-10-08T02:54:02;18.80;55.80
12166;DHT22;6146;48.128;11.476;2023-10-08T02:56:31;18.80;55.90
12166;DHT22;6146;48.128;11.476;2023-10-08T02:58:58;18.80;55.90
12166;DHT22;6146;48.128;11.476;2023-10-08T03:01:24;18.70;56.40
12166;DHT22;6146;48.128;11.476;2023-10-08T03:03:51;18.80;56.40
12166;DHT22;6146;48.128;11.476;2023-10-08T03:06:19;18.70;56.90
12166;DHT22;6146;48.128;11.476;2023-10-08T03:08:45;18.70;56.30
12166;DHT22;6146;48.128;11.476;2023-10-08T03:11:13;18.70;56.60
12166;DHT22;6146;48.128;11.476;2023-10-08T03:13:45;18.80;56.90
12166;DHT22;6146;48.128;11.476;2023-10-08T03:16:17;18.70;57.10
12166;DHT22;6146;48.128;11.476;2023-10-08T03:18:47;18.70;57.10
12166;DHT22;6146;48.128;11.476;2023-10-08T03:21:15;18.70;56.70
12166;DHT22;6146;48.128;11.476;2023-10-08T03:23:46;18.70;56.50
12166;DHT22;6146;48.128;11.476;2023-10-08T03:26:13;18.70;56.60
12166;DHT22;6146;48.128;11.476;2023-10-08T03:28:58;18.70;56.50
12166;DHT22;6146;48.128;11.476;2023-10-08T03:31:24;18.80;56.10
12166;DHT22;6146;48.128;11.476;2023-10-08T03:34:09;18.80;56.40
12166;DHT22;6146;48.128;11.476;2023-10-08T03:36:38;18.80;56.30
12166;DHT22;6146;48.128;11.476;2023-10-08T03:39:10;18.80;56.70
12166;DHT22;6146;48.128;11.476;2023-10-08T03:41:39;18.80;56.10
12166;DHT22;6146;48.128;11.476;2023-10-08T03:44:05;18.80;56.10
12166;DHT22;6146;48.128;11.476;2023-10-08T03:46:36;18.80;56.10
12166;DHT22;6146;48.128;11.476;2023-10-08T03:49:08;18.80;56.70
12166;DHT22;6146;48.128;11.476;2023-10-08T03:51:46;18.80;56.50
12166;DHT22;6146;48.128;11.476;2023-10-08T03:54:12;18.80;56.60
12166;DHT22;6146;48.128;11.476;2023-10-08T03:56:45;18.70;56.50
12166;DHT22;6146;48.128;11.476;2023-10-08T03:59:14;18.70;56.80
12166;DHT22;6146;48.128;11.476;2023-10-08T04:01:46;18.70;56.60
12166;DHT22;6146;48.128;11.476;2023-10-08T04:04:14;18.70;57.20
12166;DHT22;6146;48.128;11.476;2023-10-08T04:06:41;18.60;56.80
12166;DHT22;6146;48.128;11.476;2023-10-08T04:09:15;18.60;56.90
12166;DHT22;6146;48.128;11.476;2023-10-08T04:11:50;18.60;57.50
12166;DHT22;6146;48.128;11.476;2023-10-08T04:14:16;18.50;57.40
12166;DHT22;6146;48.128;11.476;2023-10-08T04:16:42;18.50;57.50
12166;DHT22;6146;48.128;11.476;2023-10-08T04:19:09;18.50;57.80
12166;DHT22;6146;48.128;11.476;2023-10-08T04:21:34;18.50;57.30
12166;DHT22;6146;48.128;11.476;2023-10-08T04:24:01;18.50;57.20
12166;DHT22;6146;48.128;11.476;2023-10-08T04:26:29;18.50;57.20
12166;DHT22;6146;48.128;11.476;2023-10-08T04:28:57;18.50;57.40
12166;DHT22;6146;48.128;11.476;2023-10-08T04:31:24;18.50;56.90
12166;DHT22;6146;48.128;11.476;2023-10-08T04:33:54;18.60;57.00
12166;DHT22;6146;48.128;11.476;2023-10-08T04:36:20;18.60;56.80
12166;DHT22;6146;48.128;11.476;2023-10-08T04:38:46;18.60;56.90
12166;DHT22;6146;48.128;11.476;2023-10-08T04:41:14;18.60;57.60
12166;DHT22;6146;48.128;11.476;2023-10-08T04:43:44;18.60;57.30
12166;DHT22;6146;48.128;11.476;2023-10-08T04:46:10;18.60;57.10
12166;DHT22;6146;48.128;11.476;2023-10-08T04:48:45;18.60;57.00
12166;DHT22;6146;48.128;11.476;2023-10-08T04:51:11;18.60;56.90
12166;DHT22;6146;48.128;11.476;2023-10-08T04:53:38;18.60;56.80
12166;DHT22;6146;48.128;11.476;2023-10-08T04:56:07;18.60;57.70
12166;DHT22;6146;48.128;11.476;2023-10-08T04:58:40;18.60;57.70
12166;DHT22;6146;48.128;11.476;2023-10-08T05:01:07;18.60;57.90
12166;DHT22;6146;48.128;11.476;2023-10-08T05:03:55;18.60;58.10
12166;DHT22;6146;48.128;11.476;2023-10-08T05:06:24;18.50;57.80
12166;DHT22;6146;48.128;11.476;2023-10-08T05:11:50;18.50;58.00
12166;DHT22;6146;48.128;11.476;2023-10-08T05:14:23;18.50;58.60
12166;DHT22;6146;48.128;11.476;2023-10-08T05:17:03;18.50;58.50
12166;DHT22;6146;48.128;11.476;2023-10-08T05:19:38;18.50;58.50
12166;DHT22;6146;48.128;11.476;2023-10-08T05:22:17;18.40;59.10
12166;DHT22;6146;48.128;11.476;2023-10-08T05:24:55;18.40;58.50
12166;DHT22;6146;48.128;11.476;2023-10-08T05:27:41;18.40;58.60
12166;DHT22;6146;48.128;11.476;2023-10-08T05:30:13;18.30;58.70
12166;DHT22;6146;48.128;11.476;2023-10-08T05:32:43;18.30;58.40
12166;DHT22;6146;48.128;11.476;2023-10-08T05:35:27;18.30;58.60
12166;DHT22;6146;48.128;11.476;2023-10-08T05:38:04;18.40;58.80
12166;DHT22;6146;48.128;11.476;2023-10-08T05:40:45;18.40;59.20
12166;DHT22;6146;48.128;11.476;2023-10-08T05:43:40;18.40;59.50
12166;DHT22;6146;48.128;11.476;2023-10-08T05:46:15;18.30;59.80
12166;DHT22;6146;48.128;11.476;2023-10-08T05:48:56;18.30;59.70
12166;DHT22;6146;48.128;11.476;2023-10-08T05:51:41;18.30;60.00
12166;DHT22;6146;48.128;11.476;2023-10-08T05:54:21;18.30;62.00
12166;DHT22;6146;48.128;11.476;2023-10-08T05:57:10;18.30;61.20
12166;DHT22;6146;48.128;11.476;2023-10-08T05:59:53;18.20;61.50
12166;DHT22;6146;48.128;11.476;2023-10-08T06:02:31;18.30;60.50
12166;DHT22;6146;48.128;11.476;2023-10-08T06:05:04;18.20;62.10
12166;DHT22;6146;48.128;11.476;2023-10-08T06:07:47;18.20;61.80
12166;DHT22;6146;48.128;11.476;2023-10-08T06:10:32;18.20;60.90
12166;DHT22;6146;48.128;11.476;2023-10-08T06:15:39;18.20;61.00
12166;DHT22;6146;48.128;11.476;2023-10-08T06:18:18;18.10;61.20
12166;DHT22;6146;48.128;11.476;2023-10-08T06:20:45;18.10;61.10
12166;DHT22;6146;48.128;11.476;2023-10-08T06:23:12;18.20;61.60
12166;DHT22;6146;48.128;11.476;2023-10-08T06:25:39;18.20;62.10
12166;DHT22;6146;48.128;11.476;2023-10-08T06:28:18;18.20;61.70
12166;DHT22;6146;48.128;11.476;2023-10-08T06:30:48;18.20;60.70
12166;DHT22;6146;48.128;11.476;2023-10-08T06:33:15;18.30;62.70
12166;DHT22;6146;48.128;11.476;2023-10-08T06:35:42;18.30;61.40
12166;DHT22;6146;48.128;11.476;2023-10-08T06:38:11;18.40;60.90
12166;DHT22;6146;48.128;11.476;2023-10-08T06:40:37;18.50;61.90
12166;DHT22;6146;48.128;11.476;2023-10-08T06:43:05;18.70;61.60
12166;DHT22;6146;48.128;11.476;2023-10-08T06:45:44;18.70;60.80
12166;DHT22;6146;48.128;11.476;2023-10-08T06:48:10;18.70;60.00
12166;DHT22;6146;48.128;11.476;2023-10-08T06:50:47;19.00;60.20
12166;DHT22;6146;48.128;11.476;2023-10-08T06:53:13;20.20;58.40
12166;DHT22;6146;48.128;11.476;2023-10-08T06:55:46;21.30;57.20
12166;DHT22;6146;48.128;11.476;2023-10-08T06:58:14;21.50;56.10
12166;DHT22;6146;48.128;11.476;2023-10-08T07:00:40;21.40;54.40
12166;DHT22;6146;48.128;11.476;2023-10-08T07:03:13;22.00;54.90
12166;DHT22;6146;48.128;11.476;2023-10-08T07:05:43;22.60;53.30
12166;DHT22;6146;48.128;11.476;2023-10-08T07:08:10;22.70;53.30
12166;DHT22;6146;48.128;11.476;2023-10-08T07:10:39;22.50;54.60
12166;DHT22;6146;48.128;11.476;2023-10-08T07:13:07;22.50;53.90
12166;DHT22;6146;48.128;11.476;2023-10-08T07:15:34;22.40;54.10
12166;DHT22;6146;48.128;11.476;2023-10-08T07:18:05;22.50;54.20
12166;DHT22;6146;48.128;11.476;2023-10-08T07:20:39;22.50;54.20
12166;DHT22;6146;48.128;11.476;2023-10-08T07:23:07;23.00;53.40
12166;DHT22;6146;48.128;11.476;2023-10-08T07:25:43;23.70;52.50
12166;DHT22;6146;48.128;11.476;2023-10-08T07:28:12;24.20;53.10
12166;DHT22;6146;48.128;11.476;2023-10-08T07:30:38;25.10;51.00
12166;DHT22;6146;48.128;11.476;2023-10-08T07:33:10;25.80;49.00
12166;DHT22;6146;48.128;11.476;2023-10-08T07:35:47;25.90;47.60
12166;DHT22;6146;48.128;11.476;2023-10-08T07:38:33;26.20;47.80
12166;DHT22;6146;48.128;11.476;2023-10-08T07:41:00;25.90;48.40
12166;DHT22;6146;48.128;11.476;2023-10-08T07:43:26;25.10;49.70
12166;DHT22;6146;48.128;11.476;2023-10-08T07:45:54;24.90;50.00
12166;DHT22;6146;48.128;11.476;2023-10-08T07:48:19;24.60;50.30
12166;DHT22;6146;48.128;11.476;2023-10-08T07:50:48;23.90;51.50
12166;DHT22;6146;48.128;11.476;2023-10-08T07:53:16;23.60;52.40
12166;DHT22;6146;48.128;11.476;2023-10-08T07:55:45;22.90;53.40
12166;DHT22;6146;48.128;11.476;2023-10-08T07:58:15;22.40;55.60
12166;DHT22;6146;48.128;11.476;2023-10-08T08:00:42;22.10;55.40
12166;DHT22;6146;48.128;11.476;2023-10-08T08:03:07;21.80;56.80
12166;DHT22;6146;48.128;11.476;2023-10-08T08:05:33;21.50;57.60
12166;DHT22;6146;48.128;11.476;2023-10-08T08:07:59;21.30;57.80
12166;DHT22;6146;48.128;11.476;2023-10-08T08:10:31;21.00;59.00
12166;DHT22;6146;48.128;11.476;2023-10-08T08:13:04;20.80;60.40
12166;DHT22;6146;48.128;11.476;2023-10-08T08:15:34;20.80;61.20
12166;DHT22;6146;48.128;11.476;2023-10-08T08:18:05;20.70;59.80
12166;DHT22;6146;48.128;11.476;2023-10-08T08:20:31;20.70;60.60
12166;DHT22;6146;48.128;11.476;2023-10-08T08:23:04;20.70;60.70
12166;DHT22;6146;48.128;11.476;2023-10-08T08:25:40;20.70;61.00
12166;DHT22;6146;48.128;11.476;2023-10-08T08:28:21;20.90;61.70
12166;DHT22;6146;48.128;11.476;2023-10-08T08:30:50;21.00;62.10
12166;DHT22;6146;48.128;11.476;2023-10-08T08:33:18;21.10;61.20
12166;DHT22;6146;48.128;11.476;2023-10-08T08:36:00;21.20;61.90
12166;DHT22;6146;48.128;11.476;2023-10-08T08:38:29;21.20;61.70
12166;DHT22;6146;48.128;11.476;2023-10-08T08:41:07;21.20;62.10
12166;DHT22;6146;48.128;11.476;2023-10-08T08:43:35;21.10;62.70
12166;DHT22;6146;48.128;11.476;2023-10-08T08:46:04;21.10;63.50
12166;DHT22;6146;48.128;11.476;2023-10-08T08:48:33;21.10;64.60
12166;DHT22;6146;48.128;11.476;2023-10-08T08:51:00;21.10;65.80
12166;DHT22;6146;48.128;11.476;2023-10-08T08:53:26;21.10;62.80
12166;DHT22;6146;48.128;11.476;2023-10-08T08:55:54;21.00;63.10
12166;DHT22;6146;48.128;11.476;2023-10-08T08:58:20;20.90;63.40
12166;DHT22;6146;48.128;11.476;2023-10-08T09:00:47;21.00;65.60
12166;DHT22;6146;48.128;11.476;2023-10-08T09:03:13;21.00;65.00
12166;DHT22;6146;48.128;11.476;2023-10-08T09:05:39;20.90;63.90
12166;DHT22;6146;48.128;11.476;2023-10-08T09:08:06;20.90;65.70
12166;DHT22;6146;48.128;11.476;2023-10-08T09:10:33;21.00;64.70
12166;DHT22;6146;48.128;11.476;2023-10-08T09:13:04;21.10;66.10
12166;DHT22;6146;48.128;11.476;2023-10-08T09:15:30;21.30;64.10
12166;DHT22;6146;48.128;11.476;2023-10-08T09:17:58;21.40;62.20
12166;DHT22;6146;48.128;11.476;2023-10-08T09:20:26;21.40;62.50
12166;DHT22;6146;48.128;11.476;2023-10-08T09:25:41;21.30;63.10
12166;DHT22;6146;48.128;11.476;2023-10-08T09:28:07;21.30;63.60
12166;DHT22;6146;48.128;11.476;2023-10-08T09:30:36;21.20;64.10
12166;DHT22;6146;48.128;11.476;2023-10-08T09:33:04;21.30;63.60
12166;DHT22;6146;48.128;11.476;2023-10-08T09:35:31;21.20;64.40
12166;DHT22;6146;48.128;11.476;2023-10-08T09:37:59;21.30;64.00
12166;DHT22;6146;48.128;11.476;2023-10-08T09:40:25;21.20;64.10
12166;DHT22;6146;48.128;11.476;2023-10-08T09:42:51;21.20;64.40
12166;DHT22;6146;48.128;11.476;2023-10-08T09:45:18;21.30;64.10
12166;DHT22;6146;48.128;11.476;2023-10-08T09:47:56;21.40;64.50
12166;DHT22;6146;48.128;11.476;2023-10-08T09:50:29;21.50;63.80
12166;DHT22;6146;48.128;11.476;2023-10-08T09:53:13;21.90;65.80
12166;DHT22;6146;48.128;11.476;2023-10-08T09:55:54;22.20;63.70
12166;DHT22;6146;48.128;11.476;2023-10-08T09:58:21;22.50;65.90
12166;DHT22;6146;48.128;11.476;2023-10-08T10:00:49;22.70;65.30
12166;DHT22;6146;48.128;11.476;2023-10-08T10:03:15;23.00;62.00
12166;DHT22;6146;48.128;11.476;2023-10-08T10:05:44;23.20;62.60
12166;DHT22;6146;48.128;11.476;2023-10-08T10:08:10;23.30;60.70
12166;DHT22;6146;48.128;11.476;2023-10-08T10:10:37;23.40;61.40
12166;DHT22;6146;48.128;11.476;2023-10-08T10:13:10;23.60;61.40
12166;DHT22;6146;48.128;11.476;2023-10-08T10:15:37;23.80;61.70
12166;DHT22;6146;48.128;11.476;2023-10-08T10:18:13;24.00;59.70
12166;DHT22;6146;48.128;11.476;2023-10-08T10:20:52;24.00;59.50
12166;DHT22;6146;48.128;11.476;2023-10-08T10:23:39;24.00;61.40
12166;DHT22;6146;48.128;11.476;2023-10-08T10:26:31;23.80;60.80
12166;DHT22;6146;48.128;11.476;2023-10-08T10:31:38;23.60;61.20
12166;DHT22;6146;48.128;11.476;2023-10-08T10:34:05;23.50;64.20
12166;DHT22;6146;48.128;11.476;2023-10-08T10:36:34;23.20;61.80
12166;DHT22;6146;48.128;11.476;2023-10-08T10:38:59;23.00;64.40
12166;DHT22;6146;48.128;11.476;2023-10-08T10:41:25;22.80;64.90
12166;DHT22;6146;48.128;11.476;2023-10-08T10:43:53;22.50;65.90
12166;DHT22;6146;48.128;11.476;2023-10-08T10:46:18;22.30;65.30
12166;DHT22;6146;48.128;11.476;2023-10-08T10:48:56;22.10;66.90
12166;DHT22;6146;48.128;11.476;2023-10-08T10:51:33;21.90;66.40
12166;DHT22;6146;48.128;11.476;2023-10-08T10:53:59;21.90;69.60
12166;DHT22;6146;48.128;11.476;2023-10-08T10:56:48;21.80;69.10
12166;DHT22;6146;48.128;11.476;2023-10-08T10:59:29;21.70;69.40
12166;DHT22;6146;48.128;11.476;2023-10-08T11:02:02;21.70;69.60
12166;DHT22;6146;48.128;11.476;2023-10-08T11:04:46;21.70;67.80
12166;DHT22;6146;48.128;11.476;2023-10-08T11:07:19;21.60;68.10
12166;DHT22;6146;48.128;11.476;2023-10-08T11:09:49;21.70;68.50
12166;DHT22;6146;48.128;11.476;2023-10-08T11:12:18;21.60;68.60
12166;DHT22;6146;48.128;11.476;2023-10-08T11:14:48;21.70;69.00
12166;DHT22;6146;48.128;11.476;2023-10-08T11:17:18;21.50;68.30
12166;DHT22;6146;48.128;11.476;2023-10-08T11:19:47;21.50;69.20
12166;DHT22;6146;48.128;11.476;2023-10-08T11:22:14;21.60;69.10
12166;DHT22;6146;48.128;11.476;2023-10-08T11:24:45;21.50;68.50
12166;DHT22;6146;48.128;11.476;2023-10-08T11:27:17;21.40;69.70
12166;DHT22;6146;48.128;11.476;2023-10-08T11:29:54;21.30;70.60
12166;DHT22;6146;48.128;11.476;2023-10-08T11:32:24;21.30;71.60
12166;DHT22;6146;48.128;11.476;2023-10-08T11:34:58;21.20;70.80
12166;DHT22;6146;48.128;11.476;2023-10-08T11:37:29;21.30;72.50
12166;DHT22;6146;48.128;11.476;2023-10-08T11:39:56;21.30;72.90
12166;DHT22;6146;48.128;11.476;2023-10-08T11:42:24;21.30;72.70
12166;DHT22;6146;48.128;11.476;2023-10-08T11:45:02;21.20;74.50
12166;DHT22;6146;48.128;11.476;2023-10-08T11:47:55;21.20;73.70
12166;DHT22;6146;48.128;11.476;2023-10-08T11:50:27;21.20;73.30
12166;DHT22;6146;48.128;11.476;2023-10-08T11:53:00;21.20;73.70
12166;DHT22;6146;48.128;11.476;2023-10-08T11:55:32;21.20;72.90
12166;DHT22;6146;48.128;11.476;2023-10-08T11:58:01;21.20;72.10
12166;DHT22;6146;48.128;11.476;2023-10-08T12:00:41;21.20;72.90
12166;DHT22;6146;48.128;11.476;2023-10-08T12:03:14;21.20;72.40
12166;DHT22;6146;48.128;11.476;2023-10-08T12:05:48;21.30;71.70
12166;DHT22;6146;48.128;11.476;2023-10-08T12:08:15;21.20;71.40
12166;DHT22;6146;48.128;11.476;2023-10-08T12:10:45;21.20;71.80
12166;DHT22;6146;48.128;11.476;2023-10-08T12:13:14;21.20;72.60
12166;DHT22;6146;48.128;11.476;2023-10-08T12:15:43;21.30;71.80
12166;DHT22;6146;48.128;11.476;2023-10-08T12:18:10;21.30;72.20
12166;DHT22;6146;48.128;11.476;2023-10-08T12:20:50;21.30;72.80
12166;DHT22;6146;48.128;11.476;2023-10-08T12:23:16;21.20;72.70
12166;DHT22;6146;48.128;11.476;2023-10-08T12:25:55;21.10;72.40
12166;DHT22;6146;48.128;11.476;2023-10-08T12:28:24;21.00;72.70
12166;DHT22;6146;48.128;11.476;2023-10-08T12:30:51;21.00;71.90
12166;DHT22;6146;48.128;11.476;2023-10-08T12:33:22;20.90;73.50
12166;DHT22;6146;48.128;11.476;2023-10-08T12:35:50;20.90;72.60
12166;DHT22;6146;48.128;11.476;2023-10-08T12:38:19;20.80;73.90
12166;DHT22;6146;48.128;11.476;2023-10-08T12:40:50;20.70;73.10
12166;DHT22;6146;48.128;11.476;2023-10-08T12:45:49;20.70;74.90
12166;DHT22;6146;48.128;11.476;2023-10-08T12:48:22;20.60;74.10
12166;DHT22;6146;48.128;11.476;2023-10-08T12:50:49;20.50;74.90
12166;DHT22;6146;48.128;11.476;2023-10-08T12:53:27;20.50;75.50
12166;DHT22;6146;48.128;11.476;2023-10-08T12:55:59;20.60;75.80
12166;DHT22;6146;48.128;11.476;2023-10-08T12:58:31;20.60;75.50
12166;DHT22;6146;48.128;11.476;2023-10-08T13:00:57;20.70;77.70
12166;DHT22;6146;48.128;11.476;2023-10-08T13:03:26;20.70;75.70
12166;DHT22;6146;48.128;11.476;2023-10-08T13:05:56;20.80;75.50
12166;DHT22;6146;48.128;11.476;2023-10-08T13:08:32;20.70;75.30
12166;DHT22;6146;48.128;11.476;2023-10-08T13:11:01;20.80;74.30
12166;DHT22;6146;48.128;11.476;2023-10-08T13:13:30;20.80;74.70
12166;DHT22;6146;48.128;11.476;2023-10-08T13:15:56;20.90;74.80
12166;DHT22;6146;48.128;11.476;2023-10-08T13:18:23;20.90;74.20
12166;DHT22;6146;48.128;11.476;2023-10-08T13:20:54;21.00;74.30
12166;DHT22;6146;48.128;11.476;2023-10-08T13:23:20;21.00;73.60
12166;DHT22;6146;48.128;11.476;2023-10-08T13:25:51;21.10;74.20
12166;DHT22;6146;48.128;11.476;2023-10-08T13:28:22;21.10;72.80
12166;DHT22;6146;48.128;11.476;2023-10-08T13:30:49;21.20;72.60
12166;DHT22;6146;48.128;11.476;2023-10-08T13:33:18;21.30;73.30
12166;DHT22;6146;48.128;11.476;2023-10-08T13:35:44;21.50;74.50
12166;DHT22;6146;48.128;11.476;2023-10-08T13:38:10;21.60;74.00
12166;DHT22;6146;48.128;11.476;2023-10-08T13:40:39;21.60;74.80
12166;DHT22;6146;48.128;11.476;2023-10-08T13:43:09;21.70;74.30
12166;DHT22;6146;48.128;11.476;2023-10-08T13:45:37;21.70;73.50
12166;DHT22;6146;48.128;11.476;2023-10-08T13:48:05;21.90;73.30
12166;DHT22;6146;48.128;11.476;2023-10-08T13:50:31;21.90;72.10
12166;DHT22;6146;48.128;11.476;2023-10-08T13:52:57;22.00;73.40
12166;DHT22;6146;48.128;11.476;2023-10-08T13:55:24;22.00;72.70
12166;DHT22;6146;48.128;11.476;2023-10-08T13:57:51;22.20;75.90
12166;DHT22;6146;48.128;11.476;2023-10-08T14:00:17;22.10;71.80
12166;DHT22;6146;48.128;11.476;2023-10-08T14:02:51;22.20;72.70
12166;DHT22;6146;48.128;11.476;2023-10-08T14:05:21;22.20;73.90
12166;DHT22;6146;48.128;11.476;2023-10-08T14:07:50;22.20;73.00
12166;DHT22;6146;48.128;11.476;2023-10-08T14:10:16;22.20;75.20
12166;DHT22;6146;48.128;11.476;2023-10-08T14:12:46;22.10;73.50
12166;DHT22;6146;48.128;11.476;2023-10-08T14:15:18;22.20;73.20
12166;DHT22;6146;48.128;11.476;2023-10-08T14:17:46;22.20;73.90
12166;DHT22;6146;48.128;11.476;2023-10-08T14:20:18;22.30;73.30
12166;DHT22;6146;48.128;11.476;2023-10-08T14:22:48;22.20;73.20
12166;DHT22;6146;48.128;11.476;2023-10-08T14:25:26;22.20;74.30
12166;DHT22;6146;48.128;11.476;2023-10-08T14:27:53;22.20;73.40
12166;DHT22;6146;48.128;11.476;2023-10-08T14:30:19;22.10;73.30
12166;DHT22;6146;48.128;11.476;2023-10-08T14:32:49;22.10;74.50
12166;DHT22;6146;48.128;11.476;2023-10-08T14:35:15;21.90;73.70
12166;DHT22;6146;48.128;11.476;2023-10-08T14:38:00;21.80;74.60
12166;DHT22;6146;48.128;11.476;2023-10-08T14:40:45;21.80;75.00
12166;DHT22;6146;48.128;11.476;2023-10-08T14:43:30;21.70;76.40
12166;DHT22;6146;48.128;11.476;2023-10-08T14:46:00;21.70;74.90
12166;DHT22;6146;48.128;11.476;2023-10-08T14:48:31;21.60;75.70
12166;DHT22;6146;48.128;11.476;2023-10-08T14:51:00;21.60;75.20
12166;DHT22;6146;48.128;11.476;2023-10-08T14:53:28;21.50;75.20
12166;DHT22;6146;48.128;11.476;2023-10-08T14:55:55;21.40;75.60
12166;DHT22;6146;48.128;11.476;2023-10-08T14:58:20;21.30;76.10
12166;DHT22;6146;48.128;11.476;2023-10-08T15:00:46;21.20;76.70
12166;DHT22;6146;48.128;11.476;2023-10-08T15:03:12;21.20;76.70
12166;DHT22;6146;48.128;11.476;2023-10-08T15:05:38;21.10;77.70
12166;DHT22;6146;48.128;11.476;2023-10-08T15:08:08;21.00;77.10
12166;DHT22;6146;48.128;11.476;2023-10-08T15:10:40;21.00;77.90
12166;DHT22;6146;48.128;11.476;2023-10-08T15:13:09;21.00;77.80
12166;DHT22;6146;48.128;11.476;2023-10-08T15:15:34;21.00;77.80
12166;DHT22;6146;48.128;11.476;2023-10-08T15:18:01;21.00;78.30
12166;DHT22;6146;48.128;11.476;2023-10-08T15:20:29;20.90;78.10
12166;DHT22;6146;48.128;11.476;2023-10-08T15:22:57;20.90;78.90
12166;DHT22;6146;48.128;11.476;2023-10-08T15:25:23;20.80;79.10
12166;DHT22;6146;48.128;11.476;2023-10-08T15:27:49;20.80;79.40
12166;DHT22;6146;48.128;11.476;2023-10-08T15:30:19;20.80;80.00
12166;DHT22;6146;48.128;11.476;2023-10-08T15:32:46;20.80;81.40
12166;DHT22;6146;48.128;11.476;2023-10-08T15:35:17;20.70;81.70
12166;DHT22;6146;48.128;11.476;2023-10-08T15:37:46;20.60;82.20
12166;DHT22;6146;48.128;11.476;2023-10-08T15:40:12;20.50;83.20
12166;DHT22;6146;48.128;11.476;2023-10-08T15:42:50;20.40;83.10
12166;DHT22;6146;48.128;11.476;2023-10-08T15:45:19;20.30;83.50
12166;DHT22;6146;48.128;11.476;2023-10-08T15:47:45;20.40;84.10
12166;DHT22;6146;48.128;11.476;2023-10-08T15:50:11;20.20;85.20
12166;DHT22;6146;48.128;11.476;2023-10-08T15:52:37;20.20;86.70
12166;DHT22;6146;48.128;11.476;2023-10-08T15:55:07;20.10;88.10
12166;DHT22;6146;48.128;11.476;2023-10-08T15:57:33;20.00;88.80
12166;DHT22;6146;48.128;11.476;2023-10-08T15:59:59;19.80;89.70
12166;DHT22;6146;48.128;11.476;2023-10-08T16:02:24;19.70;90.70
12166;DHT22;6146;48.128;11.476;2023-10-08T16:04:50;19.70;91.10